Aérodrome :
LOGIN :

S'inscrire | Disclaimer

   EN    FR    IT 

 










Légende :    VFR   VFR Marginal   IFR   IFR Intensif   IFR Très Intensif
Visi : 
Plafond : 
>= 8 km
>= 3000ft
5 à 8 km
1000 à 3000 ft
1500m à 5 km
500 à 1000 ft
800 à 1500m
200 à 500 ft
< 800m
< 200 ft
Symboles :   Orages  Brouillard  Fortes neiges  Fortes précipitations  Vent > 20 kt
SIGMETs :   Divers  Orages  Givrage  Turbulence  Onde Orograph.  Cendres Volcan.






- Altitude de l'aérodrome : 41 ft


LIRE - Pratica di Mare Air Base Pomezia

DERNIER METAR :
  • 241455Z 20005KT 160V240 9999 SCT020 15/11 Q1021 RMK SCT VIS MIN 9999 WIND THR13 22004KT WIND THR31 19004KT BLU

METARs EXPIRÉS :
  • 241355Z 21004KT 180V260 9999 BKN018 15/11 Q1021 RMK BKN VIS MIN 9999 WIND THR13 19004KT WIND THR31 16004KT WHT
  • 241255Z 23006KT 200V290 9999 SCT020 15/11 Q1022 RMK SCT VIS MIN 9999 WIND THR13 25005KT WIND THR31 22005KT BLU

TAF TAF LIRE
Valide du 24 à 15h jusqu'au 25 à 00h UTC


241400Z 2415/2424 21005KT 9999 SCT020



MET'MAP, la Météo Aéronautique d'un coup d'oeil ! - Copyright ORBIFLY Décembre 2007 - Disclaimer

ORBIFLY MET'MAP TEAM :

Programmation & Développement : Alexandra Zaïnal
Sur une idée originale de : Baudouin d'Aumeries
Assistance à la programmation : Marc-Olivier Méhu
Soutien technique & logistique : Manuel Goepfert

Contact : metmap@orbifly.com




SOURCES & CREDITS :

   NOAA